sensor_id;sensor_type;location;lat;lon;timestamp;temperature;humidity
5554;DHT22;2800;49.528;8.666;2023-11-18T00:02:15;6.50;99.90
5554;DHT22;2800;49.528;8.666;2023-11-18T00:04:41;6.50;99.90
5554;DHT22;2800;49.528;8.666;2023-11-18T00:07:06;6.40;99.90
5554;DHT22;2800;49.528;8.666;2023-11-18T00:09:32;6.40;99.90
5554;DHT22;2800;49.528;8.666;2023-11-18T00:11:57;6.40;99.90
5554;DHT22;2800;49.528;8.666;2023-11-18T00:14:23;6.30;99.90
5554;DHT22;2800;49.528;8.666;2023-11-18T00:16:48;6.30;99.90
5554;DHT22;2800;49.528;8.666;2023-11-18T00:19:14;6.30;99.90
5554;DHT22;2800;49.528;8.666;2023-11-18T00:21:40;6.30;99.90
5554;DHT22;2800;49.528;8.666;2023-11-18T00:24:06;6.30;99.90
5554;DHT22;2800;49.528;8.666;2023-11-18T00:26:33;6.30;99.90
5554;DHT22;2800;49.528;8.666;2023-11-18T00:28:59;6.30;99.90
5554;DHT22;2800;49.528;8.666;2023-11-18T00:31:26;6.30;99.90
5554;DHT22;2800;49.528;8.666;2023-11-18T00:33:51;6.20;99.90
5554;DHT22;2800;49.528;8.666;2023-11-18T00:36:17;6.20;99.90
5554;DHT22;2800;49.528;8.666;2023-11-18T00:38:43;6.20;99.90
5554;DHT22;2800;49.528;8.666;2023-11-18T00:41:08;6.10;99.90
5554;DHT22;2800;49.528;8.666;2023-11-18T00:43:34;6.10;99.90
5554;DHT22;2800;49.528;8.666;2023-11-18T00:46:00;6.20;99.90
5554;DHT22;2800;49.528;8.666;2023-11-18T00:48:26;6.10;99.90
5554;DHT22;2800;49.528;8.666;2023-11-18T00:50:52;6.10;99.90
5554;DHT22;2800;49.528;8.666;2023-11-18T00:53:17;6.00;99.90
5554;DHT22;2800;49.528;8.666;2023-11-18T00:55:44;6.00;99.90
5554;DHT22;2800;49.528;8.666;2023-11-18T00:58:09;6.00;99.90
5554;DHT22;2800;49.528;8.666;2023-11-18T01:00:35;5.90;99.90
5554;DHT22;2800;49.528;8.666;2023-11-18T01:03:01;5.90;99.90
5554;DHT22;2800;49.528;8.666;2023-11-18T01:05:28;5.80;99.90
5554;DHT22;2800;49.528;8.666;2023-11-18T01:07:57;5.80;99.90
5554;DHT22;2800;49.528;8.666;2023-11-18T01:10:22;5.80;99.90
5554;DHT22;2800;49.528;8.666;2023-11-18T01:12:48;5.80;99.90
5554;DHT22;2800;49.528;8.666;2023-11-18T01:15:14;5.80;99.90
5554;DHT22;2800;49.528;8.666;2023-11-18T01:17:39;5.80;99.90
5554;DHT22;2800;49.528;8.666;2023-11-18T01:20:06;5.80;99.90
5554;DHT22;2800;49.528;8.666;2023-11-18T01:22:38;5.80;99.90
5554;DHT22;2800;49.528;8.666;2023-11-18T01:25:06;5.80;99.90
5554;DHT22;2800;49.528;8.666;2023-11-18T01:27:32;5.70;99.90
5554;DHT22;2800;49.528;8.666;2023-11-18T01:29:59;5.70;99.90
5554;DHT22;2800;49.528;8.666;2023-11-18T01:32:25;5.70;99.90
5554;DHT22;2800;49.528;8.666;2023-11-18T01:34:51;5.70;99.90
5554;DHT22;2800;49.528;8.666;2023-11-18T01:37:17;5.60;99.90
5554;DHT22;2800;49.528;8.666;2023-11-18T01:39:42;5.60;99.90
5554;DHT22;2800;49.528;8.666;2023-11-18T01:42:08;5.50;99.90
5554;DHT22;2800;49.528;8.666;2023-11-18T01:44:34;5.50;99.90
5554;DHT22;2800;49.528;8.666;2023-11-18T01:47:02;5.50;99.90
5554;DHT22;2800;49.528;8.666;2023-11-18T01:49:32;5.40;99.90
5554;DHT22;2800;49.528;8.666;2023-11-18T01:52:02;5.40;99.90
5554;DHT22;2800;49.528;8.666;2023-11-18T01:54:28;5.30;99.90
5554;DHT22;2800;49.528;8.666;2023-11-18T01:56:54;5.30;99.90
5554;DHT22;2800;49.528;8.666;2023-11-18T01:59:20;5.20;99.90
5554;DHT22;2800;49.528;8.666;2023-11-18T02:01:53;5.20;99.90
5554;DHT22;2800;49.528;8.666;2023-11-18T02:04:20;5.10;99.90
5554;DHT22;2800;49.528;8.666;2023-11-18T02:06:48;5.10;99.90
5554;DHT22;2800;49.528;8.666;2023-11-18T02:09:18;5.00;99.90
5554;DHT22;2800;49.528;8.666;2023-11-18T02:12:10;4.90;99.90
5554;DHT22;2800;49.528;8.666;2023-11-18T02:14:39;4.90;99.90
5554;DHT22;2800;49.528;8.666;2023-11-18T02:17:05;4.80;99.90
5554;DHT22;2800;49.528;8.666;2023-11-18T02:19:31;4.80;99.90
5554;DHT22;2800;49.528;8.666;2023-11-18T02:22:00;4.70;99.90
5554;DHT22;2800;49.528;8.666;2023-11-18T02:24:27;4.70;99.90
5554;DHT22;2800;49.528;8.666;2023-11-18T02:26:54;4.60;99.90
5554;DHT22;2800;49.528;8.666;2023-11-18T02:29:21;4.60;99.90
5554;DHT22;2800;49.528;8.666;2023-11-18T02:31:48;4.60;99.90
5554;DHT22;2800;49.528;8.666;2023-11-18T02:34:19;4.50;99.90
5554;DHT22;2800;49.528;8.666;2023-11-18T02:36:48;4.40;99.90
5554;DHT22;2800;49.528;8.666;2023-11-18T02:39:27;4.40;99.90
5554;DHT22;2800;49.528;8.666;2023-11-18T02:41:55;4.40;99.90
5554;DHT22;2800;49.528;8.666;2023-11-18T02:44:25;4.30;99.90
5554;DHT22;2800;49.528;8.666;2023-11-18T02:46:51;4.30;99.90
5554;DHT22;2800;49.528;8.666;2023-11-18T02:49:16;4.20;99.90
5554;DHT22;2800;49.528;8.666;2023-11-18T02:51:43;4.20;99.90
5554;DHT22;2800;49.528;8.666;2023-11-18T02:54:10;4.20;99.90
5554;DHT22;2800;49.528;8.666;2023-11-18T02:56:39;4.10;99.90
5554;DHT22;2800;49.528;8.666;2023-11-18T02:59:05;4.10;99.90
5554;DHT22;2800;49.528;8.666;2023-11-18T03:01:34;4.10;99.90
5554;DHT22;2800;49.528;8.666;2023-11-18T03:04:02;4.10;99.90
5554;DHT22;2800;49.528;8.666;2023-11-18T03:06:28;4.00;99.90
5554;DHT22;2800;49.528;8.666;2023-11-18T03:08:53;4.00;99.90
5554;DHT22;2800;49.528;8.666;2023-11-18T03:11:19;4.00;99.90
5554;DHT22;2800;49.528;8.666;2023-11-18T03:13:45;4.00;99.90
5554;DHT22;2800;49.528;8.666;2023-11-18T03:16:13;4.00;99.90
5554;DHT22;2800;49.528;8.666;2023-11-18T03:18:40;3.90;99.90
5554;DHT22;2800;49.528;8.666;2023-11-18T03:21:13;3.90;99.90
5554;DHT22;2800;49.528;8.666;2023-11-18T03:23:39;3.90;99.90
5554;DHT22;2800;49.528;8.666;2023-11-18T03:26:06;3.90;99.90
5554;DHT22;2800;49.528;8.666;2023-11-18T03:28:32;3.90;99.90
5554;DHT22;2800;49.528;8.666;2023-11-18T03:30:57;3.90;99.90
5554;DHT22;2800;49.528;8.666;2023-11-18T03:33:23;3.90;99.90
5554;DHT22;2800;49.528;8.666;2023-11-18T03:35:48;3.80;99.90
5554;DHT22;2800;49.528;8.666;2023-11-18T03:38:14;3.80;99.90
5554;DHT22;2800;49.528;8.666;2023-11-18T03:40:42;3.80;99.90
5554;DHT22;2800;49.528;8.666;2023-11-18T03:43:10;3.80;99.90
5554;DHT22;2800;49.528;8.666;2023-11-18T03:45:38;3.80;99.90
5554;DHT22;2800;49.528;8.666;2023-11-18T03:48:04;3.80;99.90
5554;DHT22;2800;49.528;8.666;2023-11-18T03:50:29;3.80;99.90
5554;DHT22;2800;49.528;8.666;2023-11-18T03:52:55;3.80;99.90
5554;DHT22;2800;49.528;8.666;2023-11-18T03:55:20;3.80;99.90
5554;DHT22;2800;49.528;8.666;2023-11-18T03:57:46;3.80;99.90
5554;DHT22;2800;49.528;8.666;2023-11-18T04:00:15;3.80;99.90
5554;DHT22;2800;49.528;8.666;2023-11-18T04:02:41;3.80;99.90
5554;DHT22;2800;49.528;8.666;2023-11-18T04:05:07;3.80;99.90
5554;DHT22;2800;49.528;8.666;2023-11-18T04:07:33;3.80;99.90
5554;DHT22;2800;49.528;8.666;2023-11-18T04:09:59;3.80;99.90
5554;DHT22;2800;49.528;8.666;2023-11-18T04:12:25;3.90;99.90
5554;DHT22;2800;49.528;8.666;2023-11-18T04:14:52;3.90;99.90
5554;DHT22;2800;49.528;8.666;2023-11-18T04:17:18;3.90;99.90
5554;DHT22;2800;49.528;8.666;2023-11-18T04:19:43;3.90;99.90
5554;DHT22;2800;49.528;8.666;2023-11-18T04:22:09;3.90;99.90
5554;DHT22;2800;49.528;8.666;2023-11-18T04:24:34;3.90;99.90
5554;DHT22;2800;49.528;8.666;2023-11-18T04:27:01;3.90;99.90
5554;DHT22;2800;49.528;8.666;2023-11-18T04:29:27;4.00;99.90
5554;DHT22;2800;49.528;8.666;2023-11-18T04:31:53;4.00;99.90
5554;DHT22;2800;49.528;8.666;2023-11-18T04:34:19;4.00;99.90
5554;DHT22;2800;49.528;8.666;2023-11-18T04:36:44;4.00;99.90
5554;DHT22;2800;49.528;8.666;2023-11-18T04:39:10;4.00;99.90
5554;DHT22;2800;49.528;8.666;2023-11-18T04:41:41;4.00;99.90
5554;DHT22;2800;49.528;8.666;2023-11-18T04:44:06;4.00;99.90
5554;DHT22;2800;49.528;8.666;2023-11-18T04:46:32;4.00;99.90
5554;DHT22;2800;49.528;8.666;2023-11-18T04:48:57;4.00;99.90
5554;DHT22;2800;49.528;8.666;2023-11-18T04:51:23;4.10;99.90
5554;DHT22;2800;49.528;8.666;2023-11-18T04:53:48;4.10;99.90
5554;DHT22;2800;49.528;8.666;2023-11-18T04:56:14;4.00;99.90
5554;DHT22;2800;49.528;8.666;2023-11-18T04:58:42;4.10;99.90
5554;DHT22;2800;49.528;8.666;2023-11-18T05:01:08;4.10;99.90
5554;DHT22;2800;49.528;8.666;2023-11-18T05:03:34;4.10;99.90
5554;DHT22;2800;49.528;8.666;2023-11-18T05:06:00;4.10;99.90
5554;DHT22;2800;49.528;8.666;2023-11-18T05:08:26;4.10;99.90
5554;DHT22;2800;49.528;8.666;2023-11-18T05:10:51;4.10;99.90
5554;DHT22;2800;49.528;8.666;2023-11-18T05:13:17;4.10;99.90
5554;DHT22;2800;49.528;8.666;2023-11-18T05:15:44;4.10;99.90
5554;DHT22;2800;49.528;8.666;2023-11-18T05:18:11;4.10;99.90
5554;DHT22;2800;49.528;8.666;2023-11-18T05:20:39;4.20;99.90
5554;DHT22;2800;49.528;8.666;2023-11-18T05:23:04;4.20;99.90
5554;DHT22;2800;49.528;8.666;2023-11-18T05:25:30;4.20;99.90
5554;DHT22;2800;49.528;8.666;2023-11-18T05:27:58;4.20;99.90
5554;DHT22;2800;49.528;8.666;2023-11-18T05:30:24;4.30;99.90
5554;DHT22;2800;49.528;8.666;2023-11-18T05:32:51;4.40;99.90
5554;DHT22;2800;49.528;8.666;2023-11-18T05:35:17;4.30;99.90
5554;DHT22;2800;49.528;8.666;2023-11-18T05:37:42;4.30;99.90
5554;DHT22;2800;49.528;8.666;2023-11-18T05:40:09;4.40;99.90
5554;DHT22;2800;49.528;8.666;2023-11-18T05:42:37;4.40;99.90
5554;DHT22;2800;49.528;8.666;2023-11-18T05:45:06;4.40;99.90
5554;DHT22;2800;49.528;8.666;2023-11-18T05:47:33;4.40;99.90
5554;DHT22;2800;49.528;8.666;2023-11-18T05:50:00;4.50;99.90
5554;DHT22;2800;49.528;8.666;2023-11-18T05:52:25;4.50;99.90
5554;DHT22;2800;49.528;8.666;2023-11-18T05:54:51;4.50;99.90
5554;DHT22;2800;49.528;8.666;2023-11-18T05:57:16;4.50;99.90
5554;DHT22;2800;49.528;8.666;2023-11-18T05:59:42;4.60;99.90
5554;DHT22;2800;49.528;8.666;2023-11-18T06:02:08;4.60;99.90
5554;DHT22;2800;49.528;8.666;2023-11-18T06:04:34;4.60;99.90
5554;DHT22;2800;49.528;8.666;2023-11-18T06:07:00;4.60;99.90
5554;DHT22;2800;49.528;8.666;2023-11-18T06:09:27;4.60;99.90
5554;DHT22;2800;49.528;8.666;2023-11-18T06:11:53;4.70;99.90
5554;DHT22;2800;49.528;8.666;2023-11-18T06:14:20;4.70;99.90
5554;DHT22;2800;49.528;8.666;2023-11-18T06:16:47;4.80;99.90
5554;DHT22;2800;49.528;8.666;2023-11-18T06:19:15;4.80;99.90
5554;DHT22;2800;49.528;8.666;2023-11-18T06:21:41;4.90;99.90
5554;DHT22;2800;49.528;8.666;2023-11-18T06:24:07;4.90;99.90
5554;DHT22;2800;49.528;8.666;2023-11-18T06:26:32;4.90;99.90
5554;DHT22;2800;49.528;8.666;2023-11-18T06:29:01;5.00;99.90
5554;DHT22;2800;49.528;8.666;2023-11-18T06:31:27;5.10;99.90
5554;DHT22;2800;49.528;8.666;2023-11-18T06:33:54;5.20;99.90
5554;DHT22;2800;49.528;8.666;2023-11-18T06:36:21;5.30;99.90
5554;DHT22;2800;49.528;8.666;2023-11-18T06:38:50;5.40;99.90
5554;DHT22;2800;49.528;8.666;2023-11-18T06:41:20;5.40;99.90
5554;DHT22;2800;49.528;8.666;2023-11-18T06:43:48;5.50;99.90
5554;DHT22;2800;49.528;8.666;2023-11-18T06:46:25;5.50;99.90
5554;DHT22;2800;49.528;8.666;2023-11-18T06:48:52;5.50;99.90
5554;DHT22;2800;49.528;8.666;2023-11-18T06:51:23;5.50;99.90
5554;DHT22;2800;49.528;8.666;2023-11-18T06:53:50;5.60;99.90
5554;DHT22;2800;49.528;8.666;2023-11-18T06:56:15;5.60;99.90
5554;DHT22;2800;49.528;8.666;2023-11-18T06:58:41;5.60;99.90
5554;DHT22;2800;49.528;8.666;2023-11-18T07:01:08;5.60;99.90
5554;DHT22;2800;49.528;8.666;2023-11-18T07:03:35;5.60;99.90
5554;DHT22;2800;49.528;8.666;2023-11-18T07:06:02;5.70;99.90
5554;DHT22;2800;49.528;8.666;2023-11-18T07:08:27;5.70;99.90
5554;DHT22;2800;49.528;8.666;2023-11-18T07:10:53;5.80;99.90
5554;DHT22;2800;49.528;8.666;2023-11-18T07:13:18;5.80;99.90
5554;DHT22;2800;49.528;8.666;2023-11-18T07:15:44;5.80;99.90
5554;DHT22;2800;49.528;8.666;2023-11-18T07:18:10;5.80;99.90
5554;DHT22;2800;49.528;8.666;2023-11-18T07:20:37;5.90;99.90
5554;DHT22;2800;49.528;8.666;2023-11-18T07:23:02;5.90;99.90
5554;DHT22;2800;49.528;8.666;2023-11-18T07:25:28;5.90;99.90
5554;DHT22;2800;49.528;8.666;2023-11-18T07:27:53;5.90;99.90
5554;DHT22;2800;49.528;8.666;2023-11-18T07:30:21;5.90;99.90
5554;DHT22;2800;49.528;8.666;2023-11-18T07:32:48;6.00;99.90
5554;DHT22;2800;49.528;8.666;2023-11-18T07:35:13;6.00;99.90
5554;DHT22;2800;49.528;8.666;2023-11-18T07:37:39;6.10;99.90
5554;DHT22;2800;49.528;8.666;2023-11-18T07:40:05;5.90;99.90
5554;DHT22;2800;49.528;8.666;2023-11-18T07:42:31;6.00;99.90
5554;DHT22;2800;49.528;8.666;2023-11-18T07:45:00;6.00;99.90
5554;DHT22;2800;49.528;8.666;2023-11-18T07:47:29;6.00;99.90
5554;DHT22;2800;49.528;8.666;2023-11-18T07:49:57;5.90;99.90
5554;DHT22;2800;49.528;8.666;2023-11-18T07:52:23;6.00;99.90
5554;DHT22;2800;49.528;8.666;2023-11-18T07:54:49;5.90;99.90
5554;DHT22;2800;49.528;8.666;2023-11-18T07:57:14;6.00;99.90
5554;DHT22;2800;49.528;8.666;2023-11-18T07:59:40;6.00;99.90
5554;DHT22;2800;49.528;8.666;2023-11-18T08:02:05;6.00;99.90
5554;DHT22;2800;49.528;8.666;2023-11-18T08:04:34;6.00;99.90
5554;DHT22;2800;49.528;8.666;2023-11-18T08:07:00;6.10;99.90
5554;DHT22;2800;49.528;8.666;2023-11-18T08:09:26;6.10;99.90
5554;DHT22;2800;49.528;8.666;2023-11-18T08:11:51;6.10;99.90
5554;DHT22;2800;49.528;8.666;2023-11-18T08:14:18;6.10;99.90
5554;DHT22;2800;49.528;8.666;2023-11-18T08:16:44;6.10;99.90
5554;DHT22;2800;49.528;8.666;2023-11-18T08:19:09;6.20;99.90
5554;DHT22;2800;49.528;8.666;2023-11-18T08:21:35;6.20;99.90
5554;DHT22;2800;49.528;8.666;2023-11-18T08:24:05;6.20;99.90
5554;DHT22;2800;49.528;8.666;2023-11-18T08:26:30;6.20;99.90
5554;DHT22;2800;49.528;8.666;2023-11-18T08:28:56;6.20;99.90
5554;DHT22;2800;49.528;8.666;2023-11-18T08:31:22;6.30;99.90
5554;DHT22;2800;49.528;8.666;2023-11-18T08:33:47;6.30;99.90
5554;DHT22;2800;49.528;8.666;2023-11-18T08:36:13;6.30;99.90
5554;DHT22;2800;49.528;8.666;2023-11-18T08:38:38;6.30;99.90
5554;DHT22;2800;49.528;8.666;2023-11-18T08:41:05;6.40;99.90
5554;DHT22;2800;49.528;8.666;2023-11-18T08:43:34;6.40;99.90
5554;DHT22;2800;49.528;8.666;2023-11-18T08:46:00;6.50;99.90
5554;DHT22;2800;49.528;8.666;2023-11-18T08:48:26;6.50;99.90
5554;DHT22;2800;49.528;8.666;2023-11-18T08:50:53;6.50;99.90
5554;DHT22;2800;49.528;8.666;2023-11-18T08:53:19;6.60;99.90
5554;DHT22;2800;49.528;8.666;2023-11-18T08:55:51;6.70;99.90
5554;DHT22;2800;49.528;8.666;2023-11-18T08:58:19;6.80;99.90
5554;DHT22;2800;49.528;8.666;2023-11-18T09:00:52;6.90;99.90
5554;DHT22;2800;49.528;8.666;2023-11-18T09:03:21;6.90;99.90
5554;DHT22;2800;49.528;8.666;2023-11-18T09:05:54;6.90;99.90
5554;DHT22;2800;49.528;8.666;2023-11-18T09:08:27;7.00;99.90
5554;DHT22;2800;49.528;8.666;2023-11-18T09:10:55;7.00;99.90
5554;DHT22;2800;49.528;8.666;2023-11-18T09:13:22;7.00;99.90
5554;DHT22;2800;49.528;8.666;2023-11-18T09:15:50;7.10;99.90
5554;DHT22;2800;49.528;8.666;2023-11-18T09:18:16;7.10;99.90
5554;DHT22;2800;49.528;8.666;2023-11-18T09:20:43;7.10;99.90
5554;DHT22;2800;49.528;8.666;2023-11-18T09:23:09;7.20;99.90
5554;DHT22;2800;49.528;8.666;2023-11-18T09:25:34;7.20;99.90
5554;DHT22;2800;49.528;8.666;2023-11-18T09:28:01;7.30;99.90
5554;DHT22;2800;49.528;8.666;2023-11-18T09:30:28;7.30;99.90
5554;DHT22;2800;49.528;8.666;2023-11-18T09:32:54;7.40;99.90
5554;DHT22;2800;49.528;8.666;2023-11-18T09:35:21;7.50;99.90
5554;DHT22;2800;49.528;8.666;2023-11-18T09:37:46;7.60;99.90
5554;DHT22;2800;49.528;8.666;2023-11-18T09:40:16;7.70;99.90
5554;DHT22;2800;49.528;8.666;2023-11-18T09:42:43;7.70;99.90
5554;DHT22;2800;49.528;8.666;2023-11-18T09:45:10;7.90;99.90
5554;DHT22;2800;49.528;8.666;2023-11-18T09:47:46;7.90;99.90
5554;DHT22;2800;49.528;8.666;2023-11-18T09:50:19;7.90;99.90
5554;DHT22;2800;49.528;8.666;2023-11-18T09:52:48;8.00;99.90
5554;DHT22;2800;49.528;8.666;2023-11-18T09:55:32;7.90;99.90
5554;DHT22;2800;49.528;8.666;2023-11-18T09:58:04;7.80;99.90
5554;DHT22;2800;49.528;8.666;2023-11-18T10:00:38;7.90;99.90
5554;DHT22;2800;49.528;8.666;2023-11-18T10:03:07;7.90;99.90
5554;DHT22;2800;49.528;8.666;2023-11-18T10:05:35;7.80;99.90
5554;DHT22;2800;49.528;8.666;2023-11-18T10:08:03;7.90;99.90
5554;DHT22;2800;49.528;8.666;2023-11-18T10:10:31;7.90;99.90
5554;DHT22;2800;49.528;8.666;2023-11-18T10:13:02;7.70;99.90
5554;DHT22;2800;49.528;8.666;2023-11-18T10:15:30;7.70;99.90
5554;DHT22;2800;49.528;8.666;2023-11-18T10:17:56;7.80;99.90
5554;DHT22;2800;49.528;8.666;2023-11-18T10:20:46;7.90;99.90
5554;DHT22;2800;49.528;8.666;2023-11-18T10:23:13;7.80;99.90
5554;DHT22;2800;49.528;8.666;2023-11-18T10:25:48;7.80;99.90
5554;DHT22;2800;49.528;8.666;2023-11-18T10:28:30;7.70;99.90
5554;DHT22;2800;49.528;8.666;2023-11-18T10:31:00;7.70;99.90
5554;DHT22;2800;49.528;8.666;2023-11-18T10:33:37;7.80;99.90
5554;DHT22;2800;49.528;8.666;2023-11-18T10:36:04;7.80;99.90
5554;DHT22;2800;49.528;8.666;2023-11-18T10:38:38;9.30;99.90
5554;DHT22;2800;49.528;8.666;2023-11-18T10:41:08;7.70;99.90
5554;DHT22;2800;49.528;8.666;2023-11-18T10:43:35;7.70;99.90
5554;DHT22;2800;49.528;8.666;2023-11-18T10:46:09;7.80;99.90
5554;DHT22;2800;49.528;8.666;2023-11-18T10:48:46;7.70;99.90
5554;DHT22;2800;49.528;8.666;2023-11-18T10:51:16;7.80;99.90
5554;DHT22;2800;49.528;8.666;2023-11-18T10:53:46;7.80;99.90
5554;DHT22;2800;49.528;8.666;2023-11-18T10:56:27;7.80;99.90
5554;DHT22;2800;49.528;8.666;2023-11-18T10:58:55;7.70;99.90
5554;DHT22;2800;49.528;8.666;2023-11-18T11:01:31;7.80;99.90
5554;DHT22;2800;49.528;8.666;2023-11-18T11:03:57;7.90;99.90
5554;DHT22;2800;49.528;8.666;2023-11-18T11:06:24;7.80;99.90
5554;DHT22;2800;49.528;8.666;2023-11-18T11:08:52;7.90;99.90
5554;DHT22;2800;49.528;8.666;2023-11-18T11:11:22;7.90;99.90
5554;DHT22;2800;49.528;8.666;2023-11-18T11:13:57;8.00;99.90
5554;DHT22;2800;49.528;8.666;2023-11-18T11:16:42;8.00;99.90
5554;DHT22;2800;49.528;8.666;2023-11-18T11:19:26;8.00;99.90
5554;DHT22;2800;49.528;8.666;2023-11-18T11:22:04;8.00;99.90
5554;DHT22;2800;49.528;8.666;2023-11-18T11:24:59;8.00;99.90
5554;DHT22;2800;49.528;8.666;2023-11-18T11:27:42;8.10;99.90
5554;DHT22;2800;49.528;8.666;2023-11-18T11:30:20;8.10;99.90
5554;DHT22;2800;49.528;8.666;2023-11-18T11:33:06;8.10;99.90
5554;DHT22;2800;49.528;8.666;2023-11-18T11:35:40;8.10;99.90
5554;DHT22;2800;49.528;8.666;2023-11-18T11:38:12;8.10;99.90
5554;DHT22;2800;49.528;8.666;2023-11-18T11:40:39;8.10;99.90
5554;DHT22;2800;49.528;8.666;2023-11-18T11:43:09;8.10;99.90
5554;DHT22;2800;49.528;8.666;2023-11-18T11:45:36;8.20;99.90
5554;DHT22;2800;49.528;8.666;2023-11-18T11:48:03;8.20;99.90
5554;DHT22;2800;49.528;8.666;2023-11-18T11:51:11;8.20;99.90
5554;DHT22;2800;49.528;8.666;2023-11-18T11:53:49;8.20;99.90
5554;DHT22;2800;49.528;8.666;2023-11-18T11:56:18;8.20;99.90
5554;DHT22;2800;49.528;8.666;2023-11-18T11:58:49;8.20;99.90
5554;DHT22;2800;49.528;8.666;2023-11-18T12:01:32;8.10;99.90
5554;DHT22;2800;49.528;8.666;2023-11-18T12:04:02;8.20;99.90
5554;DHT22;2800;49.528;8.666;2023-11-18T12:06:33;8.20;99.90
5554;DHT22;2800;49.528;8.666;2023-11-18T12:09:01;8.20;99.90
5554;DHT22;2800;49.528;8.666;2023-11-18T12:11:33;8.20;99.90
5554;DHT22;2800;49.528;8.666;2023-11-18T12:14:06;8.20;99.90
5554;DHT22;2800;49.528;8.666;2023-11-18T12:19:29;8.10;99.90
5554;DHT22;2800;49.528;8.666;2023-11-18T12:21:57;8.20;99.90
5554;DHT22;2800;49.528;8.666;2023-11-18T12:24:26;8.20;99.90
5554;DHT22;2800;49.528;8.666;2023-11-18T12:26:54;8.20;99.90
5554;DHT22;2800;49.528;8.666;2023-11-18T12:29:33;8.20;99.90
5554;DHT22;2800;49.528;8.666;2023-11-18T12:32:01;8.20;99.90
5554;DHT22;2800;49.528;8.666;2023-11-18T12:34:49;8.20;99.90
5554;DHT22;2800;49.528;8.666;2023-11-18T12:37:51;8.10;99.90
5554;DHT22;2800;49.528;8.666;2023-11-18T12:42:59;8.10;99.90
5554;DHT22;2800;49.528;8.666;2023-11-18T12:45:44;8.10;99.90
5554;DHT22;2800;49.528;8.666;2023-11-18T12:48:20;8.10;99.90
5554;DHT22;2800;49.528;8.666;2023-11-18T12:50:53;8.10;99.90
5554;DHT22;2800;49.528;8.666;2023-11-18T12:53:20;8.10;99.90
5554;DHT22;2800;49.528;8.666;2023-11-18T12:55:49;8.10;99.90
5554;DHT22;2800;49.528;8.666;2023-11-18T12:58:16;8.10;99.90
5554;DHT22;2800;49.528;8.666;2023-11-18T13:00:43;8.10;99.90
5554;DHT22;2800;49.528;8.666;2023-11-18T13:03:10;8.10;99.90
5554;DHT22;2800;49.528;8.666;2023-11-18T13:05:37;8.10;99.90
5554;DHT22;2800;49.528;8.666;2023-11-18T13:08:03;8.10;99.90
5554;DHT22;2800;49.528;8.666;2023-11-18T13:10:29;8.10;99.90
5554;DHT22;2800;49.528;8.666;2023-11-18T13:12:55;8.10;99.90
5554;DHT22;2800;49.528;8.666;2023-11-18T13:15:24;8.10;99.90
5554;DHT22;2800;49.528;8.666;2023-11-18T13:18:04;8.10;99.90
5554;DHT22;2800;49.528;8.666;2023-11-18T13:20:32;8.10;99.90
5554;DHT22;2800;49.528;8.666;2023-11-18T13:23:01;8.10;99.90
5554;DHT22;2800;49.528;8.666;2023-11-18T13:25:36;8.10;99.90
5554;DHT22;2800;49.528;8.666;2023-11-18T13:28:05;8.10;99.90
5554;DHT22;2800;49.528;8.666;2023-11-18T13:30:32;8.10;99.90
5554;DHT22;2800;49.528;8.666;2023-11-18T13:32:58;8.10;99.90
5554;DHT22;2800;49.528;8.666;2023-11-18T13:35:24;8.10;99.90
5554;DHT22;2800;49.528;8.666;2023-11-18T13:37:50;8.10;99.90
5554;DHT22;2800;49.528;8.666;2023-11-18T13:40:16;8.10;99.90
5554;DHT22;2800;49.528;8.666;2023-11-18T13:42:44;8.20;99.90
5554;DHT22;2800;49.528;8.666;2023-11-18T13:45:12;8.20;99.90
5554;DHT22;2800;49.528;8.666;2023-11-18T13:47:51;8.20;99.90
5554;DHT22;2800;49.528;8.666;2023-11-18T13:50:20;8.30;99.90
5554;DHT22;2800;49.528;8.666;2023-11-18T13:52:46;8.30;99.90
5554;DHT22;2800;49.528;8.666;2023-11-18T13:55:15;8.30;99.90
5554;DHT22;2800;49.528;8.666;2023-11-18T13:57:52;8.30;99.90
5554;DHT22;2800;49.528;8.666;2023-11-18T14:00:18;8.30;99.90
5554;DHT22;2800;49.528;8.666;2023-11-18T14:02:48;8.40;99.90
5554;DHT22;2800;49.528;8.666;2023-11-18T14:05:18;8.30;99.90
5554;DHT22;2800;49.528;8.666;2023-11-18T14:07:46;8.40;99.90
5554;DHT22;2800;49.528;8.666;2023-11-18T14:10:13;8.40;99.90
5554;DHT22;2800;49.528;8.666;2023-11-18T14:12:39;8.40;99.90
5554;DHT22;2800;49.528;8.666;2023-11-18T14:15:05;8.40;99.90
5554;DHT22;2800;49.528;8.666;2023-11-18T14:17:35;8.40;99.90
5554;DHT22;2800;49.528;8.666;2023-11-18T14:20:01;8.40;99.90
5554;DHT22;2800;49.528;8.666;2023-11-18T14:22:27;8.40;99.90
5554;DHT22;2800;49.528;8.666;2023-11-18T14:24:53;8.40;99.90
5554;DHT22;2800;49.528;8.666;2023-11-18T14:27:19;8.30;99.90
5554;DHT22;2800;49.528;8.666;2023-11-18T14:29:44;8.30;99.90
5554;DHT22;2800;49.528;8.666;2023-11-18T14:32:11;8.30;99.90
5554;DHT22;2800;49.528;8.666;2023-11-18T14:34:38;8.30;99.90
5554;DHT22;2800;49.528;8.666;2023-11-18T14:37:03;8.30;99.90
5554;DHT22;2800;49.528;8.666;2023-11-18T14:39:31;8.30;99.90
5554;DHT22;2800;49.528;8.666;2023-11-18T14:41:57;8.30;99.90
5554;DHT22;2800;49.528;8.666;2023-11-18T14:44:24;8.40;99.90
5554;DHT22;2800;49.528;8.666;2023-11-18T14:46:51;8.30;99.90
5554;DHT22;2800;49.528;8.666;2023-11-18T14:49:16;8.30;99.90
5554;DHT22;2800;49.528;8.666;2023-11-18T14:51:43;8.30;99.90
5554;DHT22;2800;49.528;8.666;2023-11-18T14:54:08;8.30;99.90
5554;DHT22;2800;49.528;8.666;2023-11-18T14:56:34;8.30;99.90
5554;DHT22;2800;49.528;8.666;2023-11-18T14:59:00;8.20;99.90
5554;DHT22;2800;49.528;8.666;2023-11-18T15:01:25;8.20;99.90
5554;DHT22;2800;49.528;8.666;2023-11-18T15:03:51;8.20;99.90
5554;DHT22;2800;49.528;8.666;2023-11-18T15:06:25;8.20;99.90
5554;DHT22;2800;49.528;8.666;2023-11-18T15:08:50;8.10;99.90
5554;DHT22;2800;49.528;8.666;2023-11-18T15:11:21;8.10;99.90
5554;DHT22;2800;49.528;8.666;2023-11-18T15:13:47;8.10;99.90
5554;DHT22;2800;49.528;8.666;2023-11-18T15:16:12;8.10;99.90
5554;DHT22;2800;49.528;8.666;2023-11-18T15:18:38;8.00;99.90
5554;DHT22;2800;49.528;8.666;2023-11-18T15:21:04;8.00;99.90
5554;DHT22;2800;49.528;8.666;2023-11-18T15:23:29;8.00;99.90
5554;DHT22;2800;49.528;8.666;2023-11-18T15:25:55;7.90;99.90
5554;DHT22;2800;49.528;8.666;2023-11-18T15:28:22;8.00;99.90
5554;DHT22;2800;49.528;8.666;2023-11-18T15:30:47;7.90;99.90
5554;DHT22;2800;49.528;8.666;2023-11-18T15:33:14;7.90;99.90
5554;DHT22;2800;49.528;8.666;2023-11-18T15:35:40;7.80;99.90
5554;DHT22;2800;49.528;8.666;2023-11-18T15:38:11;7.80;99.90
5554;DHT22;2800;49.528;8.666;2023-11-18T15:40:41;7.80;99.90
5554;DHT22;2800;49.528;8.666;2023-11-18T15:43:07;7.90;99.90
5554;DHT22;2800;49.528;8.666;2023-11-18T15:45:33;7.90;99.90
5554;DHT22;2800;49.528;8.666;2023-11-18T15:47:59;7.80;99.90
5554;DHT22;2800;49.528;8.666;2023-11-18T15:50:26;7.80;99.90
5554;DHT22;2800;49.528;8.666;2023-11-18T15:52:54;7.90;99.90
5554;DHT22;2800;49.528;8.666;2023-11-18T15:55:21;7.90;99.90
5554;DHT22;2800;49.528;8.666;2023-11-18T15:57:48;7.90;99.90
5554;DHT22;2800;49.528;8.666;2023-11-18T16:00:24;7.90;99.90
5554;DHT22;2800;49.528;8.666;2023-11-18T16:02:52;7.80;99.90
5554;DHT22;2800;49.528;8.666;2023-11-18T16:05:19;7.80;99.90
5554;DHT22;2800;49.528;8.666;2023-11-18T16:07:50;7.80;99.90
5554;DHT22;2800;49.528;8.666;2023-11-18T16:10:17;7.70;99.90
5554;DHT22;2800;49.528;8.666;2023-11-18T16:12:52;7.60;99.90
5554;DHT22;2800;49.528;8.666;2023-11-18T16:15:19;7.70;99.90
5554;DHT22;2800;49.528;8.666;2023-11-18T16:17:45;7.70;99.90
5554;DHT22;2800;49.528;8.666;2023-11-18T16:20:11;7.80;99.90
5554;DHT22;2800;49.528;8.666;2023-11-18T16:22:41;7.80;99.90
5554;DHT22;2800;49.528;8.666;2023-11-18T16:25:06;7.60;99.90
5554;DHT22;2800;49.528;8.666;2023-11-18T16:27:32;7.50;99.90
5554;DHT22;2800;49.528;8.666;2023-11-18T16:29:58;7.60;99.90